Parrish, Florida
Current Conditions -  °F | °C
As of 5:53 PM on Thursday 27 Nov 2014 (Local Time) from KSRQ Reporting Station
Clear Clear  
Wind Chill: 58°   Ceiling: Unl
Heat Index: 58°   Visibility: 10mi
Dew Point: 42°   Wind: 9mph
Humidity: 56%   Direction: 340°NNW
Pressure: 30.22"   Gusts: NA
Location:  27.59°N, 82.42°W
Report Text: KSRQ 272253Z 34008KT 10SM CLR 14/06 A3022 RMK AO2 SLP233 T01440056
Loading
Personal Weather Stations






























Interactive Weather Map New forecast layout! Learn more

10-Day Weather Forecast

Advertisements
Track Severe Weather on mobile